Time;durP1;ratioP1;P1;durP2;ratioP2;P2;SDS_P1;SDS_P2;PMS_P1;PMS_P2;Temp;Humidity;BMP_temperature;BMP_pressure;BME280_temperature;BME280_humidity;BME280_pressure;Samples;Min_cycle;Max_cycle;Signal;HPM_P1;HPM_P2
2021/06/18 00:01:13;;;;;;;12.15;8.40;;;25.70;99.90;;;;;;5091586;28;20514;-83
2021/06/18 00:03:40;;;;;;;10.73;8.43;;;25.70;99.90;;;;;;5090564;28;20056;-84
2021/06/18 00:06:07;;;;;;;13.32;8.95;;;25.70;99.90;;;;;;5089084;28;20098;-82
2021/06/18 00:08:36;;;;;;;15.90;8.75;;;25.70;99.90;;;;;;5084827;28;20528;-83
2021/06/18 00:11:04;;;;;;;19.70;9.60;;;25.80;99.90;;;;;;5088878;28;20424;-83
2021/06/18 00:13:31;;;;;;;15.82;9.38;;;25.70;99.90;;;;;;5089060;28;20052;-84
2021/06/18 00:15:58;;;;;;;15.75;8.68;;;25.80;99.90;;;;;;5084191;28;20055;-83
2021/06/18 00:18:24;;;;;;;14.50;8.93;;;25.80;99.90;;;;;;5084569;28;20470;-83
2021/06/18 00:20:51;;;;;;;13.38;9.07;;;25.80;99.90;;;;;;5084333;28;20063;-83
2021/06/18 00:23:19;;;;;;;13.27;8.68;;;25.80;99.90;;;;;;5084001;28;20099;-83
2021/06/18 00:25:46;;;;;;;13.05;8.68;;;25.80;99.90;;;;;;5084706;28;20049;-83
2021/06/18 00:28:14;;;;;;;12.88;9.20;;;25.70;99.90;;;;;;5091064;28;20044;-80
2021/06/18 00:30:41;;;;;;;14.40;9.20;;;25.70;99.90;;;;;;5090922;28;20059;-81
2021/06/18 00:33:11;;;;;;;15.38;8.75;;;25.70;99.90;;;;;;5091235;28;20048;-80
2021/06/18 00:35:38;;;;;;;14.45;9.50;;;25.60;99.90;;;;;;5090066;28;20079;-82
2021/06/18 00:38:05;;;;;;;15.43;9.40;;;25.50;99.90;;;;;;5088693;28;20072;-83
2021/06/18 00:40:32;;;;;;;14.52;9.43;;;25.50;99.90;;;;;;5081544;28;20091;-82
2021/06/18 00:42:59;;;;;;;12.10;9.10;;;25.40;99.90;;;;;;5080147;28;20127;-81
2021/06/18 00:45:28;;;;;;;13.07;9.35;;;25.40;99.90;;;;;;5080860;28;20082;-81
2021/06/18 00:47:58;;;;;;;18.40;9.57;;;25.40;99.90;;;;;;5082244;28;20071;-83
2021/06/18 00:50:27;;;;;;;11.48;9.15;;;25.40;99.90;;;;;;5082336;28;20501;-82
2021/06/18 00:52:54;;;;;;;16.80;9.45;;;25.40;99.90;;;;;;5080060;28;20123;-79
2021/06/18 00:55:20;;;;;;;13.35;9.60;;;25.40;99.90;;;;;;5080745;28;20055;-80
2021/06/18 00:57:47;;;;;;;11.27;9.60;;;25.20;99.90;;;;;;5078554;28;20461;-82
2021/06/18 01:00:15;;;;;;;12.65;9.68;;;25.10;99.90;;;;;;5078489;28;20135;-81
2021/06/18 01:02:43;;;;;;;13.70;10.73;;;24.90;99.90;;;;;;5078001;28;20084;-79
2021/06/18 01:05:13;;;;;;;13.80;10.93;;;24.70;99.90;;;;;;5087367;28;20490;-81
2021/06/18 01:07:48;;;;;;;13.18;10.02;;;24.60;99.90;;;;;;5089070;28;20040;-79
2021/06/18 01:10:22;;;;;;;16.83;10.10;;;24.70;99.90;;;;;;5083060;28;20048;-80
2021/06/18 01:12:56;;;;;;;13.98;10.65;;;24.70;99.90;;;;;;5082047;28;20405;-82
2021/06/18 01:15:33;;;;;;;19.25;10.73;;;24.70;99.90;;;;;;5082581;28;20053;-80
2021/06/18 01:18:05;;;;;;;15.98;10.32;;;24.80;99.90;;;;;;5080183;28;20076;-82
2021/06/18 01:20:49;;;;;;;14.07;10.15;;;24.90;99.90;;;;;;5080688;28;20055;-82
2021/06/18 01:23:28;;;;;;;15.65;9.88;;;25.00;99.90;;;;;;5080014;28;20105;-81
2021/06/18 01:26:04;;;;;;;18.52;10.75;;;24.90;99.90;;;;;;5081750;28;20079;-81
2021/06/18 01:28:41;;;;;;;13.02;10.15;;;24.80;99.90;;;;;;5080611;28;20068;-81
2021/06/18 01:31:10;;;;;;;13.32;10.18;;;24.70;99.90;;;;;;5084848;28;20052;-82
2021/06/18 01:33:41;;;;;;;12.95;10.82;;;24.60;99.90;;;;;;5085494;28;20523;-81
2021/06/18 01:36:10;;;;;;;17.02;10.55;;;24.60;99.90;;;;;;5082475;28;20128;-82
2021/06/18 01:38:40;;;;;;;15.98;10.57;;;24.60;99.90;;;;;;5084477;28;20079;-82
2021/06/18 01:41:12;;;;;;;16.75;9.90;;;24.50;99.90;;;;;;5084364;28;20075;-82
2021/06/18 01:43:42;;;;;;;;;;;24.50;99.90;;;;;;5083886;28;20074;-79
2021/06/18 01:46:11;;;;;;;16.27;10.80;;;24.60;99.90;;;;;;5082633;28;19924;-79
2021/06/18 01:48:40;;;;;;;15.63;10.63;;;24.60;99.90;;;;;;5083247;28;20056;-79
2021/06/18 01:51:08;;;;;;;16.60;10.48;;;24.70;99.90;;;;;;5086000;28;20108;-80
2021/06/18 01:53:37;;;;;;;14.48;11.05;;;24.80;99.90;;;;;;5090303;28;20052;-80
2021/06/18 01:56:05;;;;;;;12.10;10.23;;;24.70;99.90;;;;;;5089556;28;20073;-82
2021/06/18 01:58:35;;;;;;;16.52;10.35;;;24.70;99.90;;;;;;5087962;28;20102;-81
2021/06/18 02:01:04;;;;;;;13.18;11.05;;;24.70;99.90;;;;;;5087566;28;20063;-82
2021/06/18 02:03:31;;;;;;;12.30;10.20;;;24.60;99.90;;;;;;5085213;28;20048;-81
2021/06/18 02:06:03;;;;;;;16.63;11.27;;;24.50;99.90;;;;;;5083749;28;20095;-79
2021/06/18 02:08:31;;;;;;;14.30;10.85;;;24.40;99.90;;;;;;5083333;28;20080;-81
2021/06/18 02:11:00;;;;;;;16.40;10.90;;;24.40;99.90;;;;;;5082783;28;20139;-80
2021/06/18 02:13:29;;;;;;;19.20;11.40;;;24.40;99.90;;;;;;5083855;28;20087;-80
2021/06/18 02:15:58;;;;;;;16.25;10.77;;;24.40;99.90;;;;;;5081386;28;20055;-80
2021/06/18 02:18:28;;;;;;;16.00;10.63;;;24.50;99.90;;;;;;5082208;28;20152;-82
2021/06/18 02:20:59;;;;;;;15.55;10.63;;;24.50;99.90;;;;;;5082344;28;20056;-83
2021/06/18 02:23:28;;;;;;;12.95;10.88;;;24.60;99.90;;;;;;5082663;28;20052;-81
2021/06/18 02:25:59;;;;;;;15.57;10.60;;;24.50;99.90;;;;;;5082186;28;20068;-83
2021/06/18 02:28:27;;;;;;;16.20;11.30;;;24.60;99.90;;;;;;5083148;28;20075;-82
2021/06/18 02:30:54;;;;;;;18.77;11.65;;;24.60;99.90;;;;;;5082527;28;20140;-81
2021/06/18 02:33:21;;;;;;;13.75;10.80;;;24.60;99.90;;;;;;5082960;28;20068;-83
2021/06/18 02:35:50;;;;;;;16.42;11.02;;;24.50;99.90;;;;;;5082879;28;20080;-83
2021/06/18 02:38:17;;;;;;;18.75;11.23;;;24.50;99.90;;;;;;5080720;28;20076;-80
2021/06/18 02:43:22;;;;;;;14.80;11.57;;;24.40;99.90;;;;;;5039237;28;20117;-79
2021/06/18 02:45:48;;;;;;;16.13;11.98;;;24.40;99.90;;;;;;5037835;28;20077;-78
2021/06/18 02:48:21;;;;;;;14.93;11.63;;;24.20;99.90;;;;;;5039044;28;20050;-79
2021/06/18 02:50:56;;;;;;;17.30;12.45;;;24.10;99.90;;;;;;5039499;28;20517;-79
2021/06/18 02:53:28;;;;;;;18.13;13.32;;;24.20;99.90;;;;;;5040181;28;20549;-78
2021/06/18 02:55:59;;;;;;;17.10;11.73;;;24.10;99.90;;;;;;5040095;28;20057;-78
2021/06/18 02:58:30;;;;;;;22.43;13.40;;;24.00;99.90;;;;;;5039852;28;20133;-78
2021/06/18 03:00:58;;;;;;;16.67;12.15;;;24.00;99.90;;;;;;5038771;28;20091;-78
2021/06/18 03:03:30;;;;;;;14.32;12.77;;;23.90;99.90;;;;;;5039442;28;20053;-79
2021/06/18 03:06:00;;;;;;;;;;;23.80;99.90;;;;;;5043024;28;20049;-78
2021/06/18 03:08:32;;;;;;;22.00;13.30;;;23.80;99.90;;;;;;5044738;28;19921;-79
2021/06/18 03:11:00;;;;;;;16.50;13.00;;;23.70;99.90;;;;;;5039000;28;20108;-78
2021/06/18 03:13:32;;;;;;;17.10;12.90;;;23.70;99.90;;;;;;5038822;28;20092;-79
2021/06/18 03:15:59;;;;;;;17.63;12.68;;;23.70;99.90;;;;;;5039481;28;20127;-79
2021/06/18 03:18:27;;;;;;;14.07;12.68;;;23.70;99.90;;;;;;5040092;28;20077;-79
2021/06/18 03:20:57;;;;;;;19.33;12.57;;;23.70;99.90;;;;;;5041078;28;20124;-78
2021/06/18 03:23:26;;;;;;;20.75;13.30;;;23.70;99.90;;;;;;5039999;28;20056;-79
2021/06/18 03:25:54;;;;;;;19.20;12.43;;;23.80;99.90;;;;;;5039437;28;20417;-79
2021/06/18 03:28:23;;;;;;;16.95;12.18;;;23.80;99.90;;;;;;5039854;28;20108;-79
2021/06/18 03:30:52;;;;;;;13.55;11.95;;;23.80;99.90;;;;;;5041065;28;20103;-78
2021/06/18 03:33:21;;;;;;;15.38;12.00;;;23.80;99.90;;;;;;5041389;28;20446;-79
2021/06/18 03:35:49;;;;;;;18.92;12.05;;;23.80;99.90;;;;;;5041348;28;20199;-79
2021/06/18 03:38:16;;;;;;;16.73;11.77;;;23.80;99.90;;;;;;5040289;28;20085;-79
2021/06/18 03:40:46;;;;;;;21.80;12.40;;;23.90;99.90;;;;;;5037979;28;20085;-77
2021/06/18 03:43:14;;;;;;;15.30;12.27;;;23.90;99.90;;;;;;5037160;28;20045;-79
2021/06/18 03:45:45;;;;;;;13.50;11.65;;;23.90;99.90;;;;;;5036139;28;20472;-79
2021/06/18 03:48:14;;;;;;;17.60;12.65;;;23.90;99.90;;;;;;5041496;28;20515;-79
2021/06/18 03:50:41;;;;;;;13.90;12.07;;;23.90;99.90;;;;;;5037150;28;20108;-80
2021/06/18 03:53:08;;;;;;;15.82;11.68;;;24.00;99.90;;;;;;5035838;28;20083;-79
2021/06/18 03:55:35;;;;;;;16.42;13.07;;;24.00;99.90;;;;;;5038159;28;20228;-79
2021/06/18 03:58:05;;;;;;;20.13;12.07;;;24.00;99.90;;;;;;5039899;28;20069;-82
2021/06/18 04:00:36;;;;;;;15.10;13.45;;;24.10;99.90;;;;;;5047138;28;20049;-79
2021/06/18 04:03:03;;;;;;;17.13;12.93;;;24.10;99.90;;;;;;5046170;28;20069;-80
2021/06/18 04:05:31;;;;;;;14.73;12.25;;;24.20;99.90;;;;;;5047891;28;20073;-80
2021/06/18 04:07:59;;;;;;;13.38;12.02;;;24.20;99.90;;;;;;5045287;28;20524;-80
2021/06/18 04:10:26;;;;;;;15.57;11.60;;;24.40;99.90;;;;;;5043603;28;20061;-79
2021/06/18 04:12:53;;;;;;;14.82;12.10;;;24.60;99.90;;;;;;5040965;28;20126;-79
2021/06/18 04:15:24;;;;;;;14.68;11.57;;;24.90;99.90;;;;;;5042693;28;20103;-80
2021/06/18 04:17:51;;;;;;;13.50;11.75;;;25.20;99.90;;;;;;5042339;28;20137;-79
2021/06/18 04:20:20;;;;;;;15.13;11.20;;;25.40;99.90;;;;;;5043161;28;20094;-82
2021/06/18 04:22:47;;;;;;;14.65;12.27;;;25.80;99.90;;;;;;5045301;28;20045;-81
2021/06/18 04:25:15;;;;;;;20.15;11.95;;;26.10;99.90;;;;;;5044099;28;20084;-81
2021/06/18 04:27:42;;;;;;;16.75;11.63;;;26.40;99.90;;;;;;5048360;28;20041;-81
2021/06/18 04:30:11;;;;;;;13.70;12.23;;;26.70;99.90;;;;;;5047646;28;20057;-80
2021/06/18 04:32:40;;;;;;;18.00;11.90;;;27.00;99.90;;;;;;5044277;28;20688;-80
2021/06/18 04:35:08;;;;;;;16.13;11.40;;;27.40;99.90;;;;;;5042526;28;20046;-81
2021/06/18 04:37:36;;;;;;;14.80;11.48;;;27.70;99.90;;;;;;5044022;28;20045;-80
2021/06/18 04:40:04;;;;;;;17.35;11.32;;;27.90;99.90;;;;;;5042934;28;20164;-82
2021/06/18 04:42:31;;;;;;;15.60;11.63;;;27.80;99.90;;;;;;5033607;28;20084;-79
2021/06/18 04:44:58;;;;;;;15.00;10.98;;;27.80;99.90;;;;;;5044234;28;20045;-80
2021/06/18 04:47:25;;;;;;;17.52;11.48;;;27.90;99.90;;;;;;5047832;28;20045;-80
2021/06/18 04:49:53;;;;;;;17.83;10.95;;;27.90;99.90;;;;;;5050034;28;20042;-81
2021/06/18 04:52:20;;;;;;;15.52;10.90;;;28.10;99.90;;;;;;5048454;28;20109;-82
2021/06/18 04:54:54;;;;;;;16.42;11.20;;;28.30;99.90;;;;;;5043931;28;20076;-82
2021/06/18 04:57:21;;;;;;;15.10;11.15;;;28.50;99.90;;;;;;5045597;28;20049;-82
2021/06/18 04:59:48;;;;;;;17.02;12.00;;;28.60;99.90;;;;;;5047777;28;20084;-82
2021/06/18 05:02:15;;;;;;;18.13;11.75;;;28.70;99.90;;;;;;5045002;28;20056;-80
2021/06/18 05:04:42;;;;;;;16.27;11.35;;;28.80;99.90;;;;;;5048261;28;20080;-80
2021/06/18 05:07:10;;;;;;;16.27;12.20;;;28.90;99.90;;;;;;5049917;28;20081;-81
2021/06/18 05:09:37;;;;;;;14.75;10.40;;;29.00;99.90;;;;;;5048491;28;20030;-81
2021/06/18 05:12:05;;;;;;;17.25;11.23;;;29.10;99.90;;;;;;5046621;28;20093;-81
2021/06/18 05:14:31;;;;;;;14.15;11.18;;;29.00;99.90;;;;;;5042960;28;20068;-80
2021/06/18 05:16:58;;;;;;;15.80;12.02;;;29.00;99.90;;;;;;5043167;28;20049;-81
2021/06/18 05:19:25;;;;;;;17.85;11.70;;;29.20;99.90;;;;;;5036804;28;20136;-80
2021/06/18 05:21:52;;;;;;;21.33;11.23;;;29.50;99.90;;;;;;5036372;28;20081;-79
2021/06/18 05:24:20;;;;;;;23.00;12.93;;;29.60;99.90;;;;;;5034103;28;20077;-81
2021/06/18 05:26:47;;;;;;;16.95;11.77;;;29.90;99.90;;;;;;5039427;28;20085;-80
2021/06/18 05:29:14;;;;;;;19.17;12.30;;;30.40;99.90;;;;;;5041931;28;20105;-80
2021/06/18 05:31:41;;;;;;;20.73;12.02;;;30.80;99.90;;;;;;5041409;28;20478;-80
2021/06/18 05:34:07;;;;;;;18.63;12.20;;;31.20;99.90;;;;;;5044734;28;20070;-80
2021/06/18 05:36:34;;;;;;;19.42;12.77;;;31.50;99.90;;;;;;5041383;28;20133;-80
2021/06/18 05:39:01;;;;;;;19.88;13.05;;;31.60;99.90;;;;;;5041333;28;20498;-80
2021/06/18 05:41:29;;;;;;;17.10;12.20;;;31.70;99.90;;;;;;5039137;28;20073;-80
2021/06/18 05:43:56;;;;;;;22.83;11.98;;;32.00;99.90;;;;;;5038806;28;20088;-80
2021/06/18 05:46:23;;;;;;;16.98;12.18;;;32.30;99.90;;;;;;5039655;28;20045;-81
2021/06/18 05:48:50;;;;;;;17.73;11.90;;;32.60;99.90;;;;;;5042205;28;20053;-79
2021/06/18 05:51:17;;;;;;;17.42;11.85;;;33.00;99.90;;;;;;5036456;28;20055;-80
2021/06/18 05:53:44;;;;;;;16.27;13.07;;;33.10;99.90;;;;;;5035643;28;20045;-79
2021/06/18 05:56:10;;;;;;;15.85;11.73;;;33.30;99.90;;;;;;5040934;28;20069;-81
2021/06/18 05:58:39;;;;;;;17.25;11.55;;;33.30;99.90;;;;;;5046379;28;20132;-81
2021/06/18 06:01:05;;;;;;;18.08;11.75;;;33.30;99.90;;;;;;5040250;28;20045;-79
2021/06/18 06:03:33;;;;;;;18.45;11.63;;;33.70;99.90;;;;;;5032075;28;20136;-78
2021/06/18 06:06:00;;;;;;;16.67;12.25;;;33.90;99.90;;;;;;5032199;28;20095;-78
2021/06/18 06:08:28;;;;;;;17.13;11.55;;;34.30;99.90;;;;;;5033180;28;20547;-79
2021/06/18 06:10:55;;;;;;;16.15;10.95;;;34.50;99.90;;;;;;5032995;28;20387;-78
2021/06/18 06:13:22;;;;;;;12.65;10.82;;;34.50;99.90;;;;;;5031629;28;20080;-78
2021/06/18 06:15:51;;;;;;;17.55;10.75;;;34.60;99.90;;;;;;5033255;28;20072;-79
2021/06/18 06:18:18;;;;;;;16.60;11.10;;;34.90;99.90;;;;;;5033480;28;20068;-78
2021/06/18 06:20:46;;;;;;;17.20;11.60;;;35.00;99.90;;;;;;5033818;28;20047;-78
2021/06/18 06:23:13;;;;;;;23.33;11.98;;;35.30;99.90;;;;;;5034596;28;20060;-79
2021/06/18 06:25:41;;;;;;;22.88;12.90;;;35.50;99.90;;;;;;5035564;28;20172;-79
2021/06/18 06:28:09;;;;;;;15.50;11.32;;;35.30;99.90;;;;;;5034547;28;20137;-78
2021/06/18 06:30:36;;;;;;;13.60;10.63;;;35.10;99.90;;;;;;5032988;28;20681;-76
2021/06/18 06:33:05;;;;;;;16.00;11.18;;;34.70;99.90;;;;;;5031358;28;20601;-79
2021/06/18 06:35:32;;;;;;;18.17;11.18;;;34.60;99.90;;;;;;5031044;28;20053;-76
2021/06/18 06:37:59;;;;;;;20.60;11.65;;;34.50;99.90;;;;;;5029386;28;20042;-77
2021/06/18 06:40:26;;;;;;;15.80;10.95;;;34.60;99.90;;;;;;5030817;28;20128;-77
2021/06/18 06:42:54;;;;;;;17.58;11.40;;;35.00;99.90;;;;;;5030817;28;20053;-77
2021/06/18 06:45:21;;;;;;;16.95;10.68;;;35.30;99.90;;;;;;5031909;28;20148;-78
2021/06/18 06:47:48;;;;;;;14.30;11.02;;;35.60;99.90;;;;;;5030398;28;20049;-78
2021/06/18 06:50:16;;;;;;;17.80;10.32;;;35.90;99.90;;;;;;5030481;28;20168;-79
2021/06/18 06:52:43;;;;;;;15.55;10.75;;;36.50;99.90;;;;;;5030085;28;20509;-78
2021/06/18 06:55:11;;;;;;;16.05;10.40;;;36.90;99.90;;;;;;5030167;28;20132;-79
2021/06/18 06:57:39;;;;;;;12.32;11.00;;;36.80;99.90;;;;;;5031267;28;20108;-79
2021/06/18 07:00:10;;;;;;;14.75;10.70;;;36.20;99.90;;;;;;5033425;28;20128;-79
2021/06/18 07:02:37;;;;;;;12.45;10.43;;;36.20;99.90;;;;;;5031766;28;20056;-75
2021/06/18 07:05:05;;;;;;;15.82;11.43;;;35.80;99.90;;;;;;5031957;28;20140;-80
2021/06/18 07:07:33;;;;;;;18.35;12.48;;;35.30;99.90;;;;;;5031555;28;20050;-80
2021/06/18 07:10:00;;;;;;;14.75;12.40;;;34.40;99.90;;;;;;5030204;28;20567;-78
2021/06/18 07:12:27;;;;;;;16.20;12.32;;;33.10;99.90;;;;;;5031060;28;20132;-79
2021/06/18 07:14:55;;;;;;;14.80;12.90;;;32.20;99.90;;;;;;5033063;28;20112;-78
2021/06/18 07:17:22;;;;;;;15.25;13.65;;;31.80;99.90;;;;;;5030627;28;20474;-79
2021/06/18 07:19:54;;;;;;;19.30;12.50;;;31.20;99.90;;;;;;5030620;28;20053;-78
2021/06/18 07:22:24;;;;;;;18.25;14.68;;;31.10;99.90;;;;;;5031081;28;20053;-78
2021/06/18 07:24:53;;;;;;;15.75;14.25;;;30.80;99.90;;;;;;5030453;28;20099;-79
2021/06/18 07:27:23;;;;;;;19.60;14.00;;;30.80;99.90;;;;;;5030681;28;20256;-79
2021/06/18 07:29:52;;;;;;;19.80;14.75;;;30.80;99.90;;;;;;5030266;28;20493;-79
2021/06/18 07:32:19;;;;;;;22.73;15.30;;;31.00;99.90;;;;;;5031766;28;20565;-80
2021/06/18 07:34:47;;;;;;;19.55;15.13;;;31.20;99.90;;;;;;5033996;28;20506;-78
2021/06/18 07:37:14;;;;;;;17.38;15.25;;;31.20;99.90;;;;;;5034298;28;20089;-78
2021/06/18 07:39:41;;;;;;;19.63;15.30;;;31.20;99.90;;;;;;5034510;28;20041;-79
2021/06/18 07:42:09;;;;;;;18.80;14.90;;;31.00;99.90;;;;;;5033899;28;20144;-78
2021/06/18 07:44:38;;;;;;;15.70;14.18;;;30.90;99.90;;;;;;5033724;28;20408;-79
2021/06/18 07:47:05;;;;;;;17.52;15.77;;;30.90;99.90;;;;;;5033742;28;20057;-79
2021/06/18 07:49:32;;;;;;;20.60;15.52;;;30.80;99.90;;;;;;5033966;28;20402;-78
2021/06/18 07:51:59;;;;;;;19.90;15.38;;;30.80;99.90;;;;;;5033842;28;20358;-78
2021/06/18 07:54:27;;;;;;;21.63;15.18;;;30.50;99.90;;;;;;5034794;28;20081;-78
2021/06/18 07:56:53;;;;;;;19.45;14.88;;;30.40;99.90;;;;;;5034074;28;20110;-78
2021/06/18 07:59:22;;;;;;;22.40;14.45;;;30.30;99.90;;;;;;5033733;28;20135;-78
2021/06/18 08:01:49;;;;;;;18.33;14.45;;;30.20;99.90;;;;;;5034173;28;20132;-78
2021/06/18 08:04:16;;;;;;;21.25;15.05;;;30.10;99.90;;;;;;5033402;28;20136;-80
2021/06/18 08:06:43;;;;;;;19.67;13.15;;;29.90;99.90;;;;;;5033949;28;20102;-78
2021/06/18 08:09:10;;;;;;;20.20;14.82;;;29.80;99.90;;;;;;5034205;28;20478;-77
2021/06/18 08:11:37;;;;;;;25.52;17.50;;;29.80;99.90;;;;;;5035777;28;20085;-78
2021/06/18 08:14:04;;;;;;;22.80;16.77;;;29.70;99.90;;;;;;5034073;28;20053;-78
2021/06/18 08:16:33;;;;;;;18.23;15.48;;;29.30;99.90;;;;;;5034016;28;20084;-78
2021/06/18 08:18:59;;;;;;;19.33;15.50;;;29.20;99.90;;;;;;5032960;28;20085;-78
2021/06/18 08:21:26;;;;;;;19.58;14.88;;;29.20;99.90;;;;;;5033296;28;20053;-79
2021/06/18 08:23:53;;;;;;;17.88;15.88;;;29.10;99.90;;;;;;5033033;28;20139;-78
2021/06/18 08:26:20;;;;;;;19.55;15.77;;;28.80;99.90;;;;;;5033129;28;20068;-78
2021/06/18 08:28:47;;;;;;;18.63;15.75;;;28.80;99.90;;;;;;5032774;28;20129;-78
2021/06/18 08:31:14;;;;;;;23.48;17.23;;;29.10;99.90;;;;;;5032737;28;20059;-77
2021/06/18 08:33:43;;;;;;;20.92;15.50;;;29.40;99.90;;;;;;5033048;28;20135;-79
2021/06/18 08:36:10;;;;;;;21.02;14.43;;;29.60;99.90;;;;;;5034257;28;20053;-78
2021/06/18 08:38:37;;;;;;;18.83;14.63;;;30.00;99.90;;;;;;5034288;28;20526;-79
2021/06/18 08:43:31;;;;;;;13.98;12.50;;;30.00;99.90;;;;;;5084901;22;20057;-81
2021/06/18 08:46:00;;;;;;;17.98;12.77;;;30.10;99.90;;;;;;5069113;28;20256;-81
2021/06/18 08:48:28;;;;;;;15.55;12.77;;;30.20;99.90;;;;;;5069511;28;20490;-80
2021/06/18 08:50:57;;;;;;;17.50;14.27;;;30.20;99.90;;;;;;5068785;28;20053;-78
2021/06/18 08:53:25;;;;;;;15.48;13.45;;;30.10;99.90;;;;;;5068041;28;20072;-83
2021/06/18 08:55:54;;;;;;;19.25;13.43;;;30.00;99.90;;;;;;5069581;28;20044;-81
2021/06/18 08:58:22;;;;;;;17.60;13.18;;;29.90;99.90;;;;;;5069271;28;20052;-82
2021/06/18 09:00:51;;;;;;;18.75;13.13;;;29.80;99.90;;;;;;5069556;28;20063;-83
2021/06/18 09:03:41;;;;;;;20.25;12.60;;;29.90;99.90;;;;;;5068313;28;20533;-82
2021/06/18 09:06:30;;;;;;;16.95;12.88;;;30.00;99.90;;;;;;5067548;28;20048;-82
2021/06/18 09:09:27;;;;;;;14.93;11.43;;;30.00;99.90;;;;;;5072106;28;20041;-83
2021/06/18 09:11:55;;;;;;;16.10;13.20;;;29.90;99.90;;;;;;5071472;28;20405;-82
2021/06/18 09:14:31;;;;;;;21.15;13.93;;;29.80;99.90;;;;;;5070728;28;20064;-82
2021/06/18 09:17:18;;;;;;;14.35;12.05;;;30.00;99.90;;;;;;5069554;28;20079;-82
2021/06/18 09:19:48;;;;;;;18.63;11.13;;;30.40;99.90;;;;;;5070513;28;20049;-82
2021/06/18 09:22:19;;;;;;;16.52;10.95;;;30.80;99.90;;;;;;5068831;28;20113;-83
2021/06/18 09:24:48;;;;;;;12.18;10.48;;;31.20;99.90;;;;;;5067700;28;20063;-82
2021/06/18 09:27:15;;;;;;;18.25;10.23;;;31.50;99.90;;;;;;5067944;28;20083;-83
2021/06/18 09:29:43;;;;;;;13.73;10.48;;;31.50;99.90;;;;;;5068844;28;20040;-83
2021/06/18 09:32:12;;;;;;;14.45;9.50;;;31.50;99.90;;;;;;5067919;28;20053;-83
2021/06/18 09:34:51;;;;;;;16.38;9.07;;;31.30;99.90;;;;;;5067763;28;20085;-82
2021/06/18 09:37:33;;;;;;;16.98;9.18;;;31.20;99.90;;;;;;5069170;28;20161;-82
2021/06/18 09:40:10;;;;;;;13.80;8.77;;;31.20;99.90;;;;;;5068877;28;20044;-82
2021/06/18 09:42:47;;;;;;;21.83;8.35;;;31.50;99.90;;;;;;5066413;28;20044;-83
2021/06/18 09:45:16;;;;;;;13.70;8.38;;;31.90;99.90;;;;;;5062315;28;20049;-85
2021/06/18 09:47:43;;;;;;;19.88;9.00;;;31.80;99.90;;;;;;5064522;28;20120;-84
2021/06/18 09:50:25;;;;;;;22.50;8.60;;;31.80;99.90;;;;;;5064877;28;20084;-83
2021/06/18 09:52:53;;;;;;;;;;;31.90;99.90;;;;;;5064634;28;20104;-81
2021/06/18 09:55:22;;;;;;;11.82;8.65;;;31.60;99.90;;;;;;5064389;28;19921;-84
2021/06/18 09:57:54;;;;;;;15.43;8.60;;;31.50;99.90;;;;;;5064621;28;20139;-84
2021/06/18 10:00:21;;;;;;;15.85;8.38;;;31.60;99.90;;;;;;5064467;28;20068;-85
2021/06/18 10:02:49;;;;;;;14.85;9.18;;;31.90;99.90;;;;;;5064284;28;20056;-83
2021/06/18 10:05:17;;;;;;;16.30;8.15;;;32.10;99.90;;;;;;5063609;28;20048;-84
2021/06/18 10:07:46;;;;;;;13.88;7.28;;;32.20;99.90;;;;;;5064047;28;20156;-84
2021/06/18 10:10:16;;;;;;;15.90;7.10;;;32.40;99.90;;;;;;5063044;28;20136;-85
2021/06/18 10:12:44;;;;;;;13.23;6.53;;;32.60;99.90;;;;;;5063509;28;20049;-84
2021/06/18 10:15:13;;;;;;;11.43;6.90;;;32.80;99.90;;;;;;5064497;28;20080;-83
2021/06/18 10:17:42;;;;;;;13.18;6.30;;;33.00;99.90;;;;;;5063061;28;20079;-84
2021/06/18 10:20:11;;;;;;;12.45;6.13;;;33.00;99.90;;;;;;5062539;28;20076;-84
2021/06/18 10:22:46;;;;;;;16.13;7.18;;;33.10;99.90;;;;;;5061240;28;20543;-83
2021/06/18 10:25:19;;;;;;;18.52;8.05;;;32.90;99.90;;;;;;5062811;28;20072;-84
2021/06/18 10:27:47;;;;;;;14.93;8.00;;;32.60;99.90;;;;;;5063818;28;20076;-85
2021/06/18 10:30:29;;;;;;;15.35;8.43;;;32.70;99.90;;;;;;5063708;28;20080;-84
2021/06/18 10:32:57;;;;;;;15.65;8.43;;;32.80;99.90;;;;;;5063638;28;20079;-83
2021/06/18 10:35:46;;;;;;;16.20;8.23;;;32.80;99.90;;;;;;5062641;28;20049;-84
2021/06/18 10:38:29;;;;;;;14.05;8.00;;;32.80;99.90;;;;;;5065196;28;20056;-84
2021/06/18 10:40:59;;;;;;;16.10;8.30;;;32.90;99.90;;;;;;5064067;28;20073;-84
2021/06/18 10:43:38;;;;;;;21.05;8.15;;;33.00;99.90;;;;;;5065543;28;20053;-83
2021/06/18 10:46:30;;;;;;;17.25;9.23;;;33.30;99.90;;;;;;5065646;28;20073;-83
2021/06/18 10:49:08;;;;;;;14.30;8.80;;;33.60;99.90;;;;;;5069366;28;20053;-83
2021/06/18 10:51:44;;;;;;;16.48;9.30;;;33.80;99.90;;;;;;5068809;28;20049;-83
2021/06/18 10:54:16;;;;;;;15.15;8.25;;;33.90;99.90;;;;;;5064107;28;20057;-82
2021/06/18 10:57:12;;;;;;;18.90;7.95;;;33.80;99.90;;;;;;5065613;28;20049;-82
2021/06/18 10:59:42;;;;;;;12.43;7.70;;;33.90;99.90;;;;;;5066514;28;20053;-82
2021/06/18 11:02:39;;;;;;;14.27;7.93;;;33.90;99.90;;;;;;5067620;28;20080;-81
2021/06/18 11:05:11;;;;;;;15.15;7.80;;;33.60;99.90;;;;;;5069017;28;20053;-81
2021/06/18 11:07:39;;;;;;;13.27;7.38;;;33.50;99.90;;;;;;5070675;28;20049;-83
2021/06/18 11:10:09;;;;;;;13.20;7.43;;;33.60;99.90;;;;;;5071301;28;20056;-82
2021/06/18 11:12:45;;;;;;;17.00;8.80;;;33.60;99.90;;;;;;5071565;28;20052;-82
2021/06/18 11:15:39;;;;;;;16.45;8.55;;;33.70;99.90;;;;;;5072112;28;20049;-80
2021/06/18 11:18:15;;;;;;;14.07;8.52;;;33.70;99.90;;;;;;5069368;28;20489;-81
2021/06/18 11:21:07;;;;;;;12.68;7.35;;;33.50;99.90;;;;;;5071119;28;20049;-82
2021/06/18 11:23:37;;;;;;;11.52;7.40;;;33.40;99.90;;;;;;5069425;28;20068;-82
2021/06/18 11:26:09;;;;;;;11.73;7.28;;;33.30;99.90;;;;;;5074253;28;20053;-81
2021/06/18 11:28:43;;;;;;;15.38;6.72;;;33.50;99.90;;;;;;5073870;28;20212;-84
2021/06/18 11:31:13;;;;;;;14.77;6.78;;;33.50;99.90;;;;;;5070876;28;20044;-82
2021/06/18 11:33:55;;;;;;;13.90;7.05;;;33.50;99.90;;;;;;5069935;28;20152;-83
2021/06/18 11:36:53;;;;;;;12.60;6.68;;;33.50;99.90;;;;;;5069563;28;20045;-83
2021/06/18 11:39:30;;;;;;;12.85;6.38;;;33.70;99.90;;;;;;5063014;28;20057;-81
2021/06/18 11:42:05;;;;;;;11.57;7.03;;;33.70;98.90;;;;;;5069269;28;20055;-82
2021/06/18 11:44:35;;;;;;;10.88;6.35;;;33.80;98.70;;;;;;5071994;28;20080;-83
2021/06/18 11:47:02;;;;;;;15.45;6.20;;;33.80;97.40;;;;;;5073834;28;20045;-83
2021/06/18 11:49:33;;;;;;;17.17;6.88;;;33.80;96.80;;;;;;5071047;28;20060;-83
2021/06/18 11:52:10;;;;;;;12.57;7.43;;;33.90;98.50;;;;;;5070522;28;20057;-83
2021/06/18 11:54:40;;;;;;;11.10;6.80;;;33.90;98.00;;;;;;5071026;28;20063;-82
2021/06/18 11:57:20;;;;;;;12.18;6.90;;;33.90;99.20;;;;;;5069518;28;20052;-83
2021/06/18 11:59:58;;;;;;;12.75;6.85;;;33.90;98.50;;;;;;5069780;28;20079;-82
2021/06/18 12:02:31;;;;;;;9.23;6.45;;;33.90;97.40;;;;;;5070035;28;20084;-83
2021/06/18 12:05:09;;;;;;;10.60;6.25;;;33.70;96.60;;;;;;5071580;28;20139;-82
2021/06/18 12:07:37;;;;;;;13.32;6.40;;;33.70;95.50;;;;;;5073151;28;20174;-82
2021/06/18 12:10:09;;;;;;;10.23;5.95;;;33.90;96.50;;;;;;5072964;28;20044;-81
2021/06/18 12:12:47;;;;;;;11.25;5.53;;;34.20;96.30;;;;;;5071139;28;20053;-83
2021/06/18 12:15:23;;;;;;;9.70;5.63;;;34.30;93.30;;;;;;5074028;28;20045;-82
2021/06/18 12:17:52;;;;;;;12.65;5.90;;;34.40;94.10;;;;;;5075086;28;20068;-82
2021/06/18 12:20:27;;;;;;;11.35;5.93;;;34.50;93.90;;;;;;5074810;28;20079;-81
2021/06/18 12:22:54;;;;;;;12.05;6.32;;;34.50;94.80;;;;;;5072487;28;20088;-81
2021/06/18 12:25:21;;;;;;;11.75;5.68;;;34.60;93.50;;;;;;5071405;28;20052;-82
2021/06/18 12:27:48;;;;;;;10.80;6.07;;;34.50;93.20;;;;;;5069004;28;20080;-83
2021/06/18 12:30:17;;;;;;;14.20;6.03;;;34.50;93.10;;;;;;5071210;28;20045;-82
2021/06/18 12:32:47;;;;;;;13.15;5.95;;;34.60;93.40;;;;;;5071768;28;20051;-82
2021/06/18 12:35:17;;;;;;;16.30;6.18;;;34.60;93.20;;;;;;5063828;28;20060;-82
2021/06/18 12:37:50;;;;;;;11.48;6.05;;;34.70;94.60;;;;;;5064403;28;20045;-80
2021/06/18 12:40:21;;;;;;;19.45;6.70;;;34.80;93.20;;;;;;5065512;28;20157;-80
2021/06/18 12:42:52;;;;;;;;;;;34.90;94.50;;;;;;5065291;28;20048;-83
2021/06/18 12:45:21;;;;;;;12.98;6.18;;;35.10;94.40;;;;;;5065950;28;19924;-79
2021/06/18 12:47:52;;;;;;;11.35;6.28;;;35.10;93.90;;;;;;5059490;28;20076;-80
2021/06/18 12:50:29;;;;;;;10.10;6.53;;;35.20;94.00;;;;;;5060296;28;20253;-80